createdAt,value
2022-11-19T00:01:35.770Z,4.17
2022-11-19T00:04:02.139Z,3.90
2022-11-19T00:06:28.508Z,4.35
2022-11-19T00:08:54.902Z,3.87
2022-11-19T00:11:21.245Z,3.07
2022-11-19T00:13:47.574Z,3.15
2022-11-19T00:16:13.958Z,2.99
2022-11-19T00:18:40.317Z,2.87
2022-11-19T00:21:06.691Z,11.58
2022-11-19T00:23:33.079Z,24.38
2022-11-19T00:25:59.423Z,8.31
2022-11-19T00:28:25.746Z,3.82
2022-11-19T00:30:52.134Z,3.95
2022-11-19T00:33:18.526Z,3.51
2022-11-19T00:35:44.925Z,5.21
2022-11-19T00:38:11.267Z,9.89
2022-11-19T00:40:37.642Z,9.02
2022-11-19T00:43:04.056Z,3.13
2022-11-19T00:45:30.406Z,3.41
2022-11-19T00:47:56.771Z,3.88
2022-11-19T00:50:23.149Z,3.42
2022-11-19T00:52:49.486Z,3.13
2022-11-19T00:55:15.817Z,3.06
2022-11-19T00:57:42.156Z,3.20
2022-11-19T01:00:08.489Z,3.22
2022-11-19T01:02:34.853Z,3.19
2022-11-19T01:05:01.200Z,3.04
2022-11-19T01:07:27.613Z,2.80
2022-11-19T01:09:54.002Z,3.09
2022-11-19T01:12:20.352Z,3.49
2022-11-19T01:14:46.722Z,3.33
2022-11-19T01:17:13.058Z,3.67
2022-11-19T01:19:39.383Z,4.35
2022-11-19T01:22:05.759Z,5.60
2022-11-19T01:24:32.103Z,3.94
2022-11-19T01:26:58.419Z,3.26
2022-11-19T01:29:24.744Z,3.23
2022-11-19T01:31:51.072Z,3.25
2022-11-19T01:34:17.442Z,2.97
2022-11-19T01:36:43.781Z,2.72
2022-11-19T01:39:10.156Z,2.71
2022-11-19T01:41:36.491Z,2.63
2022-11-19T01:44:02.828Z,2.49
2022-11-19T01:46:29.152Z,2.87
2022-11-19T01:48:55.497Z,2.70
2022-11-19T01:51:21.870Z,2.45
2022-11-19T01:53:48.214Z,2.78
2022-11-19T01:56:14.542Z,2.64
2022-11-19T01:58:40.923Z,2.63
2022-11-19T02:01:07.441Z,2.89
2022-11-19T02:03:33.926Z,3.14
2022-11-19T02:06:00.325Z,3.16
2022-11-19T02:08:26.658Z,3.27
2022-11-19T02:10:53.022Z,3.36
2022-11-19T02:13:19.358Z,3.14
2022-11-19T02:15:45.734Z,3.21
2022-11-19T02:18:12.139Z,3.38
2022-11-19T02:20:38.549Z,2.95
2022-11-19T02:23:04.936Z,3.12
2022-11-19T02:25:31.267Z,3.31
2022-11-19T02:27:57.594Z,3.36
2022-11-19T02:30:23.961Z,3.11
2022-11-19T02:32:50.306Z,3.11
2022-11-19T02:35:16.701Z,3.43
2022-11-19T02:37:43.082Z,3.20
2022-11-19T02:40:09.467Z,2.96
2022-11-19T02:42:35.850Z,3.09
2022-11-19T02:45:02.206Z,3.46
2022-11-19T02:47:28.620Z,3.31
2022-11-19T02:49:55.026Z,3.55
2022-11-19T02:52:21.372Z,3.48
2022-11-19T02:54:47.747Z,3.47
2022-11-19T02:57:14.152Z,3.58
2022-11-19T02:59:40.500Z,3.78
2022-11-19T03:02:06.833Z,3.38
2022-11-19T03:04:33.164Z,3.63
2022-11-19T03:06:59.565Z,4.11
2022-11-19T03:09:25.965Z,4.02
2022-11-19T03:11:52.356Z,3.88
2022-11-19T03:14:18.729Z,3.66
2022-11-19T03:16:45.083Z,3.43
2022-11-19T03:19:11.451Z,3.53
2022-11-19T03:21:37.835Z,3.74
2022-11-19T03:24:04.231Z,3.55
2022-11-19T03:26:30.621Z,3.47
2022-11-19T03:28:57.001Z,3.65
2022-11-19T03:31:23.374Z,3.30
2022-11-19T03:33:49.754Z,3.43
2022-11-19T03:36:16.089Z,3.37
2022-11-19T03:38:42.414Z,3.21
2022-11-19T03:41:08.769Z,3.45
2022-11-19T03:43:35.138Z,3.78
2022-11-19T03:46:01.475Z,3.97
2022-11-19T03:48:27.803Z,3.69
2022-11-19T03:50:54.123Z,3.69
2022-11-19T03:53:20.449Z,3.47
2022-11-19T03:55:46.781Z,3.57
2022-11-19T03:58:13.103Z,3.92
2022-11-19T04:00:39.437Z,3.81
2022-11-19T04:03:05.764Z,3.79
2022-11-19T04:05:32.128Z,3.49
2022-11-19T04:07:58.516Z,3.51
2022-11-19T04:10:24.898Z,3.81
2022-11-19T04:12:51.242Z,4.09
2022-11-19T04:15:17.627Z,3.93
2022-11-19T04:17:44.017Z,4.16
2022-11-19T04:20:10.407Z,4.17
2022-11-19T04:22:36.785Z,3.99
2022-11-19T04:25:03.122Z,4.10
2022-11-19T04:27:29.517Z,4.30
2022-11-19T04:29:55.867Z,4.52
2022-11-19T04:32:22.228Z,4.70
2022-11-19T04:34:48.621Z,4.63
2022-11-19T04:37:15.013Z,4.32
2022-11-19T04:39:41.352Z,4.63
2022-11-19T04:42:07.757Z,4.63
2022-11-19T04:44:34.091Z,4.66
2022-11-19T04:47:00.439Z,4.94
2022-11-19T04:49:26.808Z,4.88
2022-11-19T04:51:53.181Z,5.06
2022-11-19T04:54:19.541Z,4.88
2022-11-19T04:56:45.914Z,4.83
2022-11-19T04:59:12.253Z,4.78
2022-11-19T05:01:38.702Z,4.82
2022-11-19T05:04:05.135Z,4.81
2022-11-19T05:06:31.476Z,4.94
2022-11-19T05:08:57.853Z,4.96
2022-11-19T05:11:24.202Z,4.78
2022-11-19T05:13:50.562Z,4.57
2022-11-19T05:16:16.948Z,4.95
2022-11-19T05:18:43.334Z,4.39
2022-11-19T05:21:09.690Z,4.70
2022-11-19T05:23:36.045Z,4.93
2022-11-19T05:26:02.420Z,4.76
2022-11-19T05:28:38.483Z,4.64
2022-11-19T05:31:05.915Z,4.41
2022-11-19T05:33:34.279Z,4.37
2022-11-19T05:36:00.961Z,3.95
2022-11-19T05:38:27.298Z,4.06
2022-11-19T05:40:53.632Z,4.42
2022-11-19T05:43:20.009Z,4.00
2022-11-19T05:45:46.406Z,4.27
2022-11-19T05:48:12.748Z,3.92
2022-11-19T05:50:39.115Z,4.50
2022-11-19T05:53:05.481Z,4.24
2022-11-19T05:55:31.878Z,4.75
2022-11-19T05:57:58.252Z,4.81
2022-11-19T06:00:24.598Z,5.06
2022-11-19T06:02:50.972Z,4.98
2022-11-19T06:05:17.428Z,4.93
2022-11-19T06:07:43.785Z,5.22
2022-11-19T06:10:10.192Z,5.29
2022-11-19T06:12:39.142Z,4.98
2022-11-19T06:15:07.619Z,4.88
2022-11-19T06:17:34.002Z,4.52
2022-11-19T06:20:00.385Z,4.24
2022-11-19T06:22:26.733Z,3.82
2022-11-19T06:24:53.128Z,3.69
2022-11-19T06:27:19.503Z,3.19
2022-11-19T06:29:45.902Z,2.64
2022-11-19T06:32:12.234Z,2.60
2022-11-19T06:34:38.563Z,2.17
2022-11-19T06:37:04.891Z,1.94
2022-11-19T06:39:31.226Z,5.27
2022-11-19T06:41:57.590Z,2.70
2022-11-19T06:44:23.970Z,1.72
2022-11-19T06:46:50.361Z,1.99
2022-11-19T06:49:20.087Z,2.47
2022-11-19T06:51:46.928Z,3.02
2022-11-19T06:54:13.285Z,3.70
2022-11-19T06:56:39.622Z,3.79
2022-11-19T06:59:05.958Z,4.23
2022-11-19T07:01:32.368Z,4.58
2022-11-19T07:03:58.736Z,4.36
2022-11-19T07:06:25.115Z,4.26
2022-11-19T07:08:51.506Z,4.11
2022-11-19T07:11:17.842Z,3.89
2022-11-19T07:13:44.212Z,4.08
2022-11-19T07:16:10.616Z,3.89
2022-11-19T07:18:37.021Z,3.64
2022-11-19T07:21:03.394Z,3.47
2022-11-19T07:23:29.737Z,3.54
2022-11-19T07:25:56.118Z,3.45
2022-11-19T07:28:22.494Z,3.36
2022-11-19T07:30:48.893Z,2.85
2022-11-19T07:33:15.234Z,3.04
2022-11-19T07:35:41.604Z,3.32
2022-11-19T07:38:07.982Z,3.95
2022-11-19T07:40:34.379Z,3.70
2022-11-19T07:43:00.738Z,3.89
2022-11-19T07:45:27.101Z,3.73
2022-11-19T07:47:53.481Z,3.36
2022-11-19T07:50:19.827Z,3.04
2022-11-19T07:52:46.177Z,2.67
2022-11-19T07:55:12.566Z,2.22
2022-11-19T07:57:38.902Z,2.23
2022-11-19T08:00:05.277Z,2.64
2022-11-19T08:02:31.673Z,2.95
2022-11-19T08:04:58.015Z,2.66
2022-11-19T08:07:24.375Z,2.67
2022-11-19T08:09:50.831Z,2.65
2022-11-19T08:12:17.196Z,2.67
2022-11-19T08:14:43.555Z,2.47
2022-11-19T08:17:09.949Z,2.45
2022-11-19T08:19:36.303Z,2.39
2022-11-19T08:22:02.646Z,2.04
2022-11-19T08:24:28.986Z,1.98
2022-11-19T08:26:55.361Z,2.01
2022-11-19T08:29:21.737Z,1.42
2022-11-19T08:31:48.072Z,1.37
2022-11-19T08:34:14.418Z,1.44
2022-11-19T08:36:40.762Z,1.32
2022-11-19T08:39:07.093Z,1.64
2022-11-19T08:41:33.435Z,1.22
2022-11-19T08:43:59.761Z,1.11
2022-11-19T08:46:26.125Z,1.29
2022-11-19T08:48:52.478Z,0.92
2022-11-19T08:51:18.857Z,1.88
2022-11-19T08:53:45.193Z,0.92
2022-11-19T08:56:16.751Z,0.73
2022-11-19T08:58:44.342Z,0.97
2022-11-19T09:01:10.736Z,0.90
2022-11-19T09:03:37.170Z,0.90
2022-11-19T09:06:03.546Z,1.01
2022-11-19T09:08:29.896Z,0.82
2022-11-19T09:10:56.227Z,0.86
2022-11-19T09:13:22.566Z,0.92
2022-11-19T09:15:48.926Z,0.85
2022-11-19T09:18:15.247Z,1.08
2022-11-19T09:20:41.611Z,0.82
2022-11-19T09:23:07.990Z,1.02
2022-11-19T09:25:34.369Z,0.82
2022-11-19T09:28:00.725Z,0.86
2022-11-19T09:30:27.076Z,0.86
2022-11-19T09:32:53.394Z,1.04
2022-11-19T09:35:19.738Z,1.04
2022-11-19T09:37:46.103Z,1.04
2022-11-19T09:40:12.436Z,0.91
2022-11-19T09:42:38.766Z,1.01
2022-11-19T09:45:05.089Z,1.16
2022-11-19T09:47:31.462Z,1.43
2022-11-19T09:49:57.803Z,1.53
2022-11-19T09:52:24.127Z,1.50
2022-11-19T09:54:50.451Z,1.43
2022-11-19T09:57:16.791Z,1.03
2022-11-19T09:59:43.120Z,3.84
2022-11-19T10:02:09.446Z,3.05
2022-11-19T10:04:35.776Z,1.50
2022-11-19T10:07:02.129Z,1.69
2022-11-19T10:09:28.543Z,0.84
2022-11-19T10:11:54.932Z,0.85
2022-11-19T10:14:21.638Z,2.67
2022-11-19T10:16:48.170Z,1.93
2022-11-19T10:19:14.517Z,4.68
2022-11-19T10:21:40.966Z,5.70
2022-11-19T10:24:07.362Z,6.26
2022-11-19T10:26:33.754Z,4.39
2022-11-19T10:29:00.149Z,1.86
2022-11-19T10:31:26.546Z,2.79
2022-11-19T10:33:52.926Z,2.77
2022-11-19T10:36:19.303Z,1.81
2022-11-19T10:38:50.942Z,1.80
2022-11-19T10:41:17.633Z,1.90
2022-11-19T10:43:44.087Z,1.81
2022-11-19T10:46:10.421Z,1.70
2022-11-19T10:48:36.798Z,1.74
2022-11-19T10:51:03.140Z,1.75
2022-11-19T10:53:29.469Z,1.42
2022-11-19T10:55:55.800Z,1.68
2022-11-19T10:58:22.165Z,1.25
2022-11-19T11:00:48.580Z,1.29
2022-11-19T11:03:14.941Z,1.40
2022-11-19T11:05:41.332Z,1.12
2022-11-19T11:08:07.699Z,1.11
2022-11-19T11:10:34.025Z,1.00
2022-11-19T11:13:00.350Z,1.16
2022-11-19T11:15:26.675Z,1.06
2022-11-19T11:17:53.052Z,0.87
2022-11-19T11:20:19.395Z,0.78
2022-11-19T11:22:45.708Z,0.76
2022-11-19T11:25:12.086Z,0.80
2022-11-19T11:27:38.468Z,0.83
2022-11-19T11:30:04.820Z,0.91
2022-11-19T11:32:31.161Z,0.88
2022-11-19T11:34:57.483Z,0.83
2022-11-19T11:37:23.844Z,0.70
2022-11-19T11:39:50.174Z,0.65
2022-11-19T11:42:18.014Z,0.76
2022-11-19T11:44:44.571Z,0.79
2022-11-19T11:47:10.895Z,0.80
2022-11-19T11:49:37.216Z,0.77
2022-11-19T11:52:03.543Z,0.81
2022-11-19T11:54:29.920Z,0.72
2022-11-19T11:56:56.252Z,0.92
2022-11-19T11:59:22.668Z,0.85
2022-11-19T12:01:49.049Z,0.80
2022-11-19T12:04:15.455Z,0.90
2022-11-19T12:06:41.838Z,0.62
2022-11-19T12:09:08.246Z,0.78
2022-11-19T12:11:34.626Z,0.68
2022-11-19T12:14:00.965Z,0.76
2022-11-19T12:16:27.290Z,0.75
2022-11-19T12:18:53.609Z,0.76
2022-11-19T12:21:19.965Z,0.74
2022-11-19T12:23:46.359Z,0.87
2022-11-19T12:26:12.695Z,0.79
2022-11-19T12:28:39.068Z,0.93
2022-11-19T12:31:05.411Z,0.94
2022-11-19T12:33:31.776Z,0.73
2022-11-19T12:35:58.152Z,0.67
2022-11-19T12:38:24.481Z,0.72
2022-11-19T12:40:51.220Z,0.64
2022-11-19T12:43:17.581Z,0.72
2022-11-19T12:45:43.913Z,0.60
2022-11-19T12:48:10.286Z,0.63
2022-11-19T12:50:36.661Z,0.58
2022-11-19T12:53:03.026Z,0.68
2022-11-19T12:55:29.358Z,0.71
2022-11-19T12:57:55.678Z,0.89
2022-11-19T13:00:22.046Z,0.85
2022-11-19T13:02:48.428Z,0.59
2022-11-19T13:05:14.770Z,0.58
2022-11-19T13:07:41.133Z,0.71
2022-11-19T13:10:07.537Z,0.83
2022-11-19T13:12:33.889Z,0.76
2022-11-19T13:15:00.213Z,0.75
2022-11-19T13:17:26.578Z,0.59
2022-11-19T13:19:52.954Z,0.81
2022-11-19T13:22:19.326Z,0.70
2022-11-19T13:24:45.915Z,0.79
2022-11-19T13:27:12.249Z,0.83
2022-11-19T13:29:38.564Z,0.71
2022-11-19T13:32:04.921Z,0.85
2022-11-19T13:34:31.298Z,0.72
2022-11-19T13:36:57.619Z,0.78
2022-11-19T13:39:23.940Z,0.98
2022-11-19T13:41:50.264Z,1.03
2022-11-19T13:44:16.631Z,0.89
2022-11-19T13:46:42.957Z,0.82
2022-11-19T13:49:09.279Z,0.81
2022-11-19T13:51:35.644Z,0.75
2022-11-19T13:54:03.503Z,1.07
2022-11-19T13:56:30.167Z,1.03
2022-11-19T13:58:56.510Z,0.84
2022-11-19T14:01:22.968Z,0.89
2022-11-19T14:03:49.347Z,0.93
2022-11-19T14:06:15.708Z,0.73
2022-11-19T14:08:42.083Z,0.64
2022-11-19T14:11:08.466Z,0.79
2022-11-19T14:13:34.798Z,0.77
2022-11-19T14:16:01.117Z,0.73
2022-11-19T14:18:27.479Z,1.01
2022-11-19T14:20:53.797Z,0.91
2022-11-19T14:23:20.115Z,0.85
2022-11-19T14:25:46.489Z,1.05
2022-11-19T14:28:12.890Z,0.78
2022-11-19T14:30:39.261Z,0.80
2022-11-19T14:33:05.595Z,0.97
2022-11-19T14:35:31.930Z,0.72
2022-11-19T14:37:58.256Z,1.12
2022-11-19T14:40:24.586Z,0.87
2022-11-19T14:42:50.957Z,1.14
2022-11-19T14:45:17.302Z,0.97
2022-11-19T14:47:43.624Z,0.90
2022-11-19T14:50:09.980Z,1.00
2022-11-19T14:52:36.297Z,1.09
2022-11-19T14:55:02.698Z,1.13
2022-11-19T14:57:29.073Z,1.29
2022-11-19T14:59:55.402Z,1.50
2022-11-19T15:02:21.731Z,1.29
2022-11-19T15:04:48.043Z,1.10
2022-11-19T15:07:14.386Z,1.03
2022-11-19T15:09:40.778Z,1.17
2022-11-19T15:12:07.115Z,0.97
2022-11-19T15:14:38.400Z,1.18
2022-11-19T15:17:05.039Z,0.95
2022-11-19T15:19:31.367Z,1.10
2022-11-19T15:21:57.732Z,1.03
2022-11-19T15:24:24.111Z,1.09
2022-11-19T15:26:50.521Z,1.11
2022-11-19T15:29:16.896Z,1.05
2022-11-19T15:31:43.207Z,0.97
2022-11-19T15:34:09.572Z,1.25
2022-11-19T15:36:35.944Z,1.21
2022-11-19T15:39:02.324Z,1.65
2022-11-19T15:41:28.706Z,4.12
2022-11-19T15:43:55.085Z,5.84
2022-11-19T15:46:22.998Z,3.74
2022-11-19T15:48:52.450Z,2.09
2022-11-19T15:51:18.833Z,2.03
2022-11-19T15:53:45.167Z,2.40
2022-11-19T15:56:11.495Z,1.61
2022-11-19T15:58:37.867Z,1.37
2022-11-19T16:01:04.214Z,1.55
2022-11-19T16:03:30.597Z,1.66
2022-11-19T16:05:56.973Z,1.75
2022-11-19T16:08:23.309Z,1.45
2022-11-19T16:10:49.630Z,1.66
2022-11-19T16:13:15.956Z,1.64
2022-11-19T16:15:42.337Z,1.59
2022-11-19T16:18:08.670Z,1.43
2022-11-19T16:20:35.036Z,1.45
2022-11-19T16:23:01.415Z,1.38
2022-11-19T16:25:27.753Z,1.66
2022-11-19T16:27:54.116Z,2.36
2022-11-19T16:30:20.490Z,3.50
2022-11-19T16:32:46.839Z,3.79
2022-11-19T16:35:13.167Z,3.09
2022-11-19T16:37:39.538Z,4.16
2022-11-19T16:40:05.914Z,2.15
2022-11-19T16:42:32.252Z,2.15
2022-11-19T16:44:58.621Z,2.72
2022-11-19T16:47:24.962Z,3.13
2022-11-19T16:49:51.295Z,2.48
2022-11-19T16:52:17.660Z,2.48
2022-11-19T16:54:44.032Z,1.65
2022-11-19T16:57:10.371Z,1.43
2022-11-19T16:59:36.741Z,1.70
2022-11-19T17:02:03.114Z,2.16
2022-11-19T17:04:29.470Z,1.77
2022-11-19T17:06:55.875Z,3.01
2022-11-19T17:09:22.283Z,10.64
2022-11-19T17:11:48.658Z,16.32
2022-11-19T17:14:15.039Z,10.49
2022-11-19T17:16:41.380Z,6.25
2022-11-19T17:19:07.709Z,2.05
2022-11-19T17:21:34.032Z,2.07
2022-11-19T17:24:00.392Z,2.98
2022-11-19T17:26:26.765Z,3.67
2022-11-19T17:28:53.141Z,2.56
2022-11-19T17:31:19.533Z,4.18
2022-11-19T17:33:45.939Z,4.09
2022-11-19T17:36:12.327Z,3.05
2022-11-19T17:38:38.661Z,2.85
2022-11-19T17:41:05.035Z,4.39
2022-11-19T17:43:31.429Z,9.30
2022-11-19T17:45:57.763Z,2.81
2022-11-19T17:48:24.096Z,1.88
2022-11-19T17:50:50.426Z,1.76
2022-11-19T17:53:16.794Z,1.53
2022-11-19T17:55:43.186Z,1.70
2022-11-19T17:58:09.585Z,1.71
2022-11-19T18:00:35.925Z,1.44
2022-11-19T18:03:03.318Z,4.07
2022-11-19T18:05:29.830Z,2.43
2022-11-19T18:07:56.166Z,5.09
2022-11-19T18:10:22.523Z,1.59
2022-11-19T18:12:48.860Z,1.41
2022-11-19T18:15:15.199Z,1.64
2022-11-19T18:17:41.540Z,1.67
2022-11-19T18:20:07.864Z,2.49
2022-11-19T18:22:34.208Z,3.83
2022-11-19T18:25:00.594Z,3.47
2022-11-19T18:27:26.980Z,2.58
2022-11-19T18:29:53.407Z,1.80
2022-11-19T18:32:19.825Z,1.67
2022-11-19T18:34:46.366Z,1.95
2022-11-19T18:37:12.775Z,1.65
2022-11-19T18:39:39.183Z,1.52
2022-11-19T18:42:05.520Z,1.66
2022-11-19T18:44:31.886Z,1.68
2022-11-19T18:46:58.276Z,3.46
2022-11-19T18:49:24.691Z,5.61
2022-11-19T18:51:51.534Z,3.71
2022-11-19T18:54:17.917Z,3.22
2022-11-19T18:56:44.318Z,2.53
2022-11-19T18:59:10.649Z,4.93
2022-11-19T19:01:38.193Z,4.23
2022-11-19T19:04:04.773Z,2.07
2022-11-19T19:06:31.934Z,3.11
2022-11-19T19:08:58.336Z,1.71
2022-11-19T19:11:24.762Z,1.86
2022-11-19T19:13:51.635Z,2.43
2022-11-19T19:16:17.973Z,1.72
2022-11-19T19:18:44.308Z,2.35
2022-11-19T19:21:10.643Z,2.63
2022-11-19T19:23:37.045Z,3.66
2022-11-19T19:26:03.453Z,4.35
2022-11-19T19:28:29.827Z,9.47
2022-11-19T19:30:56.254Z,2.77
2022-11-19T19:33:22.642Z,3.96
2022-11-19T19:35:48.977Z,2.01
2022-11-19T19:38:15.312Z,2.70
2022-11-19T19:40:41.697Z,3.04
2022-11-19T19:43:08.079Z,6.01
2022-11-19T19:45:34.410Z,3.90
2022-11-19T19:48:00.810Z,1.59
2022-11-19T19:50:27.193Z,2.02
2022-11-19T19:52:53.560Z,4.44
2022-11-19T19:55:19.939Z,2.78
2022-11-19T19:57:46.316Z,2.13
2022-11-19T20:00:12.734Z,4.21
2022-11-19T20:02:39.058Z,10.14
2022-11-19T20:05:05.667Z,2.27
2022-11-19T20:07:32.142Z,2.16
2022-11-19T20:09:58.575Z,1.85
2022-11-19T20:12:24.993Z,2.38
2022-11-19T20:14:51.324Z,2.03
2022-11-19T20:17:17.666Z,1.68
2022-11-19T20:19:44.064Z,1.97
2022-11-19T20:22:10.402Z,2.21
2022-11-19T20:24:36.778Z,2.78
2022-11-19T20:27:03.561Z,6.70
2022-11-19T20:29:29.971Z,10.80
2022-11-19T20:31:56.318Z,4.67
2022-11-19T20:34:22.642Z,2.74
2022-11-19T20:36:48.989Z,2.23
2022-11-19T20:39:15.374Z,2.05
2022-11-19T20:41:41.759Z,1.97
2022-11-19T20:44:08.099Z,1.87
2022-11-19T20:46:34.423Z,3.03
2022-11-19T20:49:00.748Z,1.93
2022-11-19T20:51:27.183Z,2.14
2022-11-19T20:53:53.507Z,2.27
2022-11-19T20:56:19.843Z,1.93
2022-11-19T20:58:46.261Z,1.72
2022-11-19T21:01:12.613Z,1.63
2022-11-19T21:03:38.978Z,1.40
2022-11-19T21:06:05.324Z,1.79
2022-11-19T21:08:31.653Z,2.34
2022-11-19T21:10:57.988Z,2.37
2022-11-19T21:13:24.322Z,2.47
2022-11-19T21:15:50.693Z,1.56
2022-11-19T21:18:17.027Z,1.16
2022-11-19T21:20:43.356Z,1.23
2022-11-19T21:23:09.677Z,1.14
2022-11-19T21:25:36.002Z,1.09
2022-11-19T21:28:02.377Z,1.07
2022-11-19T21:30:28.771Z,1.13
2022-11-19T21:32:55.202Z,1.09
2022-11-19T21:35:21.550Z,1.06
2022-11-19T21:37:47.923Z,1.02
2022-11-19T21:40:14.266Z,1.14
2022-11-19T21:42:40.586Z,1.17
2022-11-19T21:45:06.955Z,1.35
2022-11-19T21:47:33.305Z,1.35
2022-11-19T21:49:59.622Z,1.22
2022-11-19T21:52:25.990Z,1.16
2022-11-19T21:54:52.320Z,1.17
2022-11-19T21:57:18.700Z,1.19
2022-11-19T21:59:45.076Z,1.37
2022-11-19T22:02:11.410Z,1.24
2022-11-19T22:04:37.781Z,2.18
2022-11-19T22:07:04.147Z,2.40
2022-11-19T22:09:30.502Z,2.08
2022-11-19T22:11:56.871Z,3.27
2022-11-19T22:14:23.211Z,3.95
2022-11-19T22:16:49.529Z,2.65
2022-11-19T22:19:15.859Z,2.04
2022-11-19T22:21:42.217Z,2.03
2022-11-19T22:24:08.553Z,2.09
2022-11-19T22:26:34.945Z,3.25
2022-11-19T22:29:01.300Z,3.50
2022-11-19T22:31:27.666Z,3.01
2022-11-19T22:33:54.127Z,3.11
2022-11-19T22:36:20.514Z,3.03
2022-11-19T22:38:46.882Z,3.20
2022-11-19T22:41:13.217Z,3.14
2022-11-19T22:43:39.542Z,3.39
2022-11-19T22:46:05.912Z,3.79
2022-11-19T22:48:32.295Z,4.71
2022-11-19T22:50:58.678Z,4.20
2022-11-19T22:53:25.067Z,3.48
2022-11-19T22:55:51.872Z,4.05
2022-11-19T22:58:18.246Z,4.02
2022-11-19T23:00:44.670Z,4.63
2022-11-19T23:03:11.069Z,5.07
2022-11-19T23:05:37.463Z,3.72
2022-11-19T23:08:03.787Z,3.28
2022-11-19T23:10:30.111Z,3.31
2022-11-19T23:12:56.446Z,3.04
2022-11-19T23:15:22.811Z,3.28
2022-11-19T23:17:49.155Z,2.87
2022-11-19T23:20:15.524Z,2.58
2022-11-19T23:22:41.895Z,2.41
2022-11-19T23:25:08.233Z,2.50
2022-11-19T23:27:34.554Z,2.23
2022-11-19T23:30:00.921Z,2.06
2022-11-19T23:32:27.315Z,1.90
2022-11-19T23:34:53.716Z,2.08
2022-11-19T23:37:20.053Z,1.88
2022-11-19T23:39:46.384Z,1.98
2022-11-19T23:42:12.763Z,1.91
2022-11-19T23:44:39.138Z,1.82
2022-11-19T23:47:05.517Z,2.05
2022-11-19T23:49:31.912Z,1.58
2022-11-19T23:51:58.306Z,1.47
2022-11-19T23:54:24.646Z,1.33
2022-11-19T23:56:50.997Z,1.28
2022-11-19T23:59:21.675Z,1.14
